RYR7676 EPPO-LIPH
Flight info
| Callsign | RYR7676 |
|---|---|
| Flight time | N/A |
| Altitude | 34000 |
| Route | ERNOX P861 RASAN DCT BUDEX DCT ARALD DCT RAXHO |
| Aircraft | B738/M-SDE2E3FGHIRWXY/LB1 |
Departure
| Time | 2026-04-30 20:53 |
|---|---|
| Airport | Poznań-Ławica Airport (EPPO) |
Arrival
| Time | N/A |
|---|---|
| Airport | Treviso Airport (LIPH) |
| Time | Latitude | Longitude | Altitude | Speed | Heading |
|---|---|---|---|---|---|
| 2026-04-30 20:32 | 52.41590 | 16.82662 | 225 ft | 0 kts | 183° |
| 2026-04-30 20:45 | 52.41594 | 16.82662 | 284 ft | 3 kts | 183° |
| 2026-04-30 20:46 | 52.41669 | 16.82666 | 294 ft | 4 kts | 127° |
| 2026-04-30 20:46 | 52.41672 | 16.82661 | 291 ft | 0 kts | 93° |
| 2026-04-30 20:48 | 52.41670 | 16.82714 | 290 ft | 11 kts | 93° |
| 2026-04-30 20:48 | 52.41662 | 16.82873 | 287 ft | 15 kts | 103° |
| 2026-04-30 20:49 | 52.41639 | 16.83031 | 290 ft | 14 kts | 103° |
| 2026-04-30 20:49 | 52.41619 | 16.83183 | 287 ft | 13 kts | 102° |
| 2026-04-30 20:49 | 52.41599 | 16.83328 | 287 ft | 13 kts | 102° |
| 2026-04-30 20:50 | 52.41569 | 16.83609 | 287 ft | 12 kts | 94° |
| 2026-04-30 20:50 | 52.41564 | 16.83753 | 287 ft | 13 kts | 92° |
| 2026-04-30 20:50 | 52.41575 | 16.83891 | 291 ft | 13 kts | 54° |
| 2026-04-30 20:50 | 52.41649 | 16.83990 | 287 ft | 14 kts | 21° |
| 2026-04-30 20:51 | 52.41731 | 16.84040 | 292 ft | 11 kts | 20° |
| 2026-04-30 20:51 | 52.41776 | 16.84067 | 288 ft | 11 kts | 20° |
| 2026-04-30 20:51 | 52.41819 | 16.84075 | 288 ft | 3 kts | 323° |
| 2026-04-30 20:52 | 52.41835 | 16.84003 | 288 ft | 10 kts | 287° |
| 2026-04-30 20:52 | 52.41915 | 16.83601 | 294 ft | 72 kts | 288° |
| 2026-04-30 20:52 | 52.42440 | 16.80854 | 651 ft | 153 kts | 288° |
| 2026-04-30 20:53 | 52.42772 | 16.79137 | 1320 ft | 161 kts | 288° |
| 2026-04-30 20:53 | 52.43113 | 16.77354 | 2045 ft | 162 kts | 288° |
| 2026-04-30 20:53 | 52.43490 | 16.75443 | 2411 ft | 193 kts | 289° |
| 2026-04-30 20:54 | 52.44290 | 16.70772 | 3132 ft | 225 kts | 282° |
| 2026-04-30 20:54 | 52.44067 | 16.68238 | 3752 ft | 236 kts | 245° |
| 2026-04-30 20:54 | 52.42869 | 16.66152 | 4113 ft | 261 kts | 219° |
| 2026-04-30 20:55 | 52.32112 | 16.52909 | 8888 ft | 303 kts | 219° |
| 2026-04-30 20:55 | 52.31396 | 16.51973 | 9235 ft | 305 kts | 219° |
| 2026-04-30 20:55 | 52.28344 | 16.47953 | 10653 ft | 313 kts | 220° |
| 2026-04-30 20:56 | 52.23829 | 16.41978 | 11623 ft | 356 kts | 219° |
| 2026-04-30 20:56 | 52.19896 | 16.36785 | 12997 ft | 370 kts | 219° |
| 2026-04-30 20:56 | 52.11643 | 16.25920 | 15952 ft | 391 kts | 219° |
| 2026-04-30 20:57 | 52.07429 | 16.20392 | 17398 ft | 400 kts | 219° |
| 2026-04-30 20:57 | 52.05212 | 16.17489 | 18150 ft | 404 kts | 219° |
| 2026-04-30 20:57 | 52.00800 | 16.11723 | 19474 ft | 414 kts | 219° |
| 2026-04-30 20:58 | 51.91611 | 15.99761 | 21824 ft | 435 kts | 219° |
| 2026-04-30 20:58 | 51.86829 | 15.93562 | 22979 ft | 444 kts | 219° |
| 2026-04-30 20:58 | 51.82339 | 15.87757 | 23991 ft | 454 kts | 219° |
| 2026-04-30 20:58 | 51.80841 | 15.85823 | 24270 ft | 456 kts | 219° |
| 2026-04-30 20:59 | 51.72221 | 15.74765 | 25851 ft | 470 kts | 216° |
| 2026-04-30 20:59 | 51.68148 | 15.70605 | 26484 ft | 476 kts | 208° |
| 2026-04-30 21:00 | 51.56439 | 15.59977 | 28184 ft | 491 kts | 208° |
| 2026-04-30 21:00 | 51.44489 | 15.48919 | 29849 ft | 502 kts | 208° |
| 2026-04-30 21:01 | 51.30916 | 15.36404 | 31319 ft | 515 kts | 208° |
| 2026-04-30 21:01 | 51.27702 | 15.33454 | 31654 ft | 517 kts | 208° |
| 2026-04-30 21:01 | 51.16794 | 15.23480 | 32642 ft | 526 kts | 207° |
| 2026-04-30 21:02 | 51.12011 | 15.19126 | 33130 ft | 527 kts | 207° |
| 2026-04-30 21:02 | 51.07883 | 15.15375 | 33667 ft | 526 kts | 207° |
| 2026-04-30 21:02 | 51.03254 | 15.11218 | 34270 ft | 523 kts | 204° |
| 2026-04-30 21:02 | 50.99950 | 15.08889 | 34637 ft | 517 kts | 195° |
| 2026-04-30 21:03 | 50.95420 | 15.06958 | 35094 ft | 510 kts | 188° |
| 2026-04-30 21:03 | 50.88555 | 15.04476 | 35720 ft | 508 kts | 188° |
| 2026-04-30 21:03 | 50.81730 | 15.01974 | 36377 ft | 506 kts | 189° |
| 2026-04-30 21:03 | 50.77001 | 15.00197 | 36876 ft | 503 kts | 191° |
| 2026-04-30 21:04 | 50.70179 | 14.97605 | 37365 ft | 504 kts | 191° |
| 2026-04-30 21:04 | 50.63370 | 14.95024 | 38066 ft | 500 kts | 192° |
| 2026-04-30 21:04 | 50.50660 | 14.90244 | 39074 ft | 498 kts | 193° |
| 2026-04-30 21:05 | 50.48306 | 14.89360 | 39228 ft | 498 kts | 193° |
| 2026-04-30 21:05 | 50.45485 | 14.88300 | 39406 ft | 497 kts | 193° |
| 2026-04-30 21:06 | 50.42124 | 14.87040 | 39609 ft | 496 kts | 193° |
| 2026-04-30 21:06 | 50.38764 | 14.85782 | 39799 ft | 495 kts | 193° |
| 2026-04-30 21:06 | 50.35458 | 14.84547 | 39992 ft | 494 kts | 193° |
| 2026-04-30 21:06 | 50.32119 | 14.83302 | 40206 ft | 493 kts | 193° |
| 2026-04-30 21:07 | 50.28783 | 14.82060 | 40387 ft | 492 kts | 193° |
| 2026-04-30 21:07 | 50.24795 | 14.80577 | 40462 ft | 495 kts | 193° |
| 2026-04-30 21:07 | 50.11267 | 14.75568 | 40482 ft | 502 kts | 193° |
| 2026-04-30 21:08 | 49.97676 | 14.70564 | 40448 ft | 498 kts | 193° |
| 2026-04-30 21:08 | 49.84353 | 14.65685 | 40448 ft | 486 kts | 193° |
| 2026-04-30 21:09 | 49.71280 | 14.60927 | 40463 ft | 482 kts | 193° |
| 2026-04-30 21:09 | 49.58183 | 14.56187 | 40473 ft | 492 kts | 193° |
| 2026-04-30 21:10 | 49.44710 | 14.51336 | 40463 ft | 502 kts | 193° |
| 2026-04-30 21:10 | 49.31126 | 14.46472 | 40430 ft | 498 kts | 193° |
| 2026-04-30 21:11 | 49.17798 | 14.41728 | 40433 ft | 485 kts | 193° |
| 2026-04-30 21:11 | 49.04727 | 14.37100 | 40440 ft | 481 kts | 193° |
| 2026-04-30 21:12 | 48.94999 | 14.33667 | 40455 ft | 486 kts | 193° |
| 2026-04-30 21:12 | 48.80943 | 14.26860 | 40437 ft | 498 kts | 199° |
| 2026-04-30 21:13 | 48.69932 | 14.21330 | 40408 ft | 497 kts | 198° |
| 2026-04-30 21:13 | 48.56935 | 14.14976 | 40401 ft | 483 kts | 198° |
| 2026-04-30 21:14 | 48.44256 | 14.08809 | 40415 ft | 475 kts | 198° |
| 2026-04-30 21:14 | 48.31715 | 14.02735 | 40433 ft | 480 kts | 198° |
| 2026-04-30 21:15 | 48.18821 | 13.96524 | 40430 ft | 492 kts | 198° |
| 2026-04-30 21:15 | 48.07768 | 13.91226 | 40407 ft | 494 kts | 198° |
| 2026-04-30 21:16 | 47.94812 | 13.85047 | 40371 ft | 481 kts | 198° |